Time;durP1;ratioP1;P1;durP2;ratioP2;P2;SDS_P1;SDS_P2;PMS_P1;PMS_P2;Temp;Humidity;BMP_temperature;BMP_pressure;BME280_temperature;BME280_humidity;BME280_pressure;Samples;Min_cycle;Max_cycle;Signal;HPM_P1;HPM_P2
2022/10/23 00:01:52;;;;;;;4.30;3.90;;;11.20;99.90;;;;;;5092186;28;20638;-63
2022/10/23 00:04:24;;;;;;;5.30;4.45;;;11.10;99.90;;;;;;5092832;28;20204;-63
2022/10/23 00:06:52;;;;;;;9.60;4.00;;;11.10;99.90;;;;;;5092420;28;20188;-64
2022/10/23 00:09:23;;;;;;;8.20;4.07;;;11.10;99.90;;;;;;5093526;28;20588;-65
2022/10/23 00:11:53;;;;;;;3.75;3.55;;;11.10;99.90;;;;;;5093061;28;20592;-63
2022/10/23 00:14:23;;;;;;;6.78;3.78;;;11.20;99.90;;;;;;5093004;28;20219;-63
2022/10/23 00:16:51;;;;;;;4.63;3.92;;;11.30;99.90;;;;;;5087090;28;20184;-63
2022/10/23 00:19:19;;;;;;;12.43;4.50;;;11.30;99.90;;;;;;5075290;28;20196;-63
2022/10/23 00:21:47;;;;;;;7.53;4.53;;;11.20;99.90;;;;;;5080547;28;20684;-63
2022/10/23 00:24:15;;;;;;;3.15;2.95;;;11.20;99.90;;;;;;5072598;28;20212;-63
2022/10/23 00:26:43;;;;;;;6.95;3.90;;;11.20;99.90;;;;;;5090824;28;20196;-63
2022/10/23 00:29:12;;;;;;;4.78;3.80;;;11.20;99.90;;;;;;5091666;28;20203;-63
2022/10/23 00:31:40;;;;;;;11.38;4.78;;;11.20;99.90;;;;;;5092515;28;20211;-63
2022/10/23 00:34:09;;;;;;;5.43;4.47;;;11.20;99.90;;;;;;5091549;28;20205;-63
2022/10/23 00:36:38;;;;;;;5.85;3.95;;;11.20;99.90;;;;;;5092243;28;20199;-63
2022/10/23 00:39:05;;;;;;;4.90;4.32;;;11.10;99.90;;;;;;5072804;28;20211;-63
2022/10/23 00:41:33;;;;;;;4.18;3.33;;;11.10;99.90;;;;;;5071989;28;20219;-63
2022/10/23 00:44:07;;;;;;;5.95;4.20;;;11.00;99.90;;;;;;5072894;28;20539;-63
2022/10/23 00:46:39;;;;;;;4.90;4.10;;;10.90;99.90;;;;;;5072421;28;20188;-63
2022/10/23 00:49:07;;;;;;;14.35;3.85;;;10.90;99.90;;;;;;5072680;28;20192;-63
2022/10/23 00:51:40;;;;;;;4.73;4.33;;;10.90;99.90;;;;;;5072212;28;20196;-63
2022/10/23 00:54:11;;;;;;;5.55;3.90;;;10.90;99.90;;;;;;5071291;28;20649;-63
2022/10/23 00:56:42;;;;;;;4.40;3.63;;;11.00;99.90;;;;;;5075352;28;20224;-63
2022/10/23 00:59:11;;;;;;;3.80;3.20;;;11.00;99.90;;;;;;5079483;28;20184;-64
2022/10/23 01:01:41;;;;;;;13.65;3.90;;;11.10;99.90;;;;;;5080656;28;20725;-63
2022/10/23 01:04:10;;;;;;;4.25;3.85;;;11.10;99.90;;;;;;5082411;28;20188;-65
2022/10/23 01:06:46;;;;;;;5.40;3.72;;;11.10;99.90;;;;;;5083181;28;20219;-63
2022/10/23 01:09:22;;;;;;;7.32;4.10;;;11.20;99.90;;;;;;5086960;28;20194;-63
2022/10/23 01:11:55;;;;;;;6.97;4.10;;;11.20;99.90;;;;;;5102116;28;20182;-65
2022/10/23 01:14:31;;;;;;;4.25;3.85;;;11.10;99.90;;;;;;5103145;28;20608;-63
2022/10/23 01:17:09;;;;;;;3.55;3.10;;;11.10;99.90;;;;;;5080911;28;20191;-63
2022/10/23 01:19:55;;;;;;;4.53;3.05;;;11.00;99.90;;;;;;5093295;28;20199;-63
2022/10/23 01:22:47;;;;;;;4.05;3.60;;;10.90;99.90;;;;;;5102477;28;20207;-64
2022/10/23 01:25:26;;;;;;;4.55;3.58;;;10.90;99.90;;;;;;5091587;28;20203;-63
2022/10/23 01:28:01;;;;;;;4.35;3.70;;;10.90;99.90;;;;;;5080967;28;20188;-63
2022/10/23 01:30:30;;;;;;;4.93;3.40;;;10.90;99.90;;;;;;5080386;28;20690;-63
2022/10/23 01:33:04;;;;;;;5.93;3.50;;;10.90;99.90;;;;;;5099007;28;20217;-63
2022/10/23 01:35:45;;;;;;;6.47;4.22;;;10.90;99.90;;;;;;5111616;28;20188;-63
2022/10/23 01:38:17;;;;;;;12.23;4.20;;;10.80;99.90;;;;;;5091736;28;20211;-63
2022/10/23 01:40:50;;;;;;;7.00;3.55;;;10.70;99.90;;;;;;5087833;28;20222;-63
2022/10/23 01:43:24;;;;;;;5.72;3.47;;;10.80;99.90;;;;;;5066868;28;20251;-63
2022/10/23 01:45:57;;;;;;;7.32;4.20;;;10.80;99.90;;;;;;5081742;28;20195;-63
2022/10/23 01:48:29;;;;;;;4.22;3.80;;;10.80;99.90;;;;;;5080999;28;20549;-63
2022/10/23 01:51:00;;;;;;;10.85;4.60;;;10.80;99.90;;;;;;5080386;28;20192;-63
2022/10/23 01:53:30;;;;;;;4.18;3.80;;;10.80;99.90;;;;;;5081914;28;20224;-63
2022/10/23 01:56:00;;;;;;;4.57;3.78;;;10.80;99.90;;;;;;5081248;28;20196;-63
2022/10/23 01:58:31;;;;;;;6.97;3.67;;;10.90;99.90;;;;;;5082726;28;20561;-64
2022/10/23 02:01:03;;;;;;;7.95;3.60;;;10.90;99.90;;;;;;5080470;28;20207;-63
2022/10/23 02:03:33;;;;;;;4.15;3.85;;;10.80;99.90;;;;;;5093973;28;20575;-63
2022/10/23 02:06:01;;;;;;;5.40;3.90;;;10.80;99.90;;;;;;5094866;28;20202;-63
2022/10/23 02:08:30;;;;;;;10.57;3.72;;;10.70;99.90;;;;;;5084524;28;20200;-63
2022/10/23 02:11:05;;;;;;;4.13;3.43;;;10.70;99.90;;;;;;5078153;28;20248;-63
2022/10/23 02:13:42;;;;;;;6.38;3.95;;;10.70;99.90;;;;;;5077773;28;21265;-63
2022/10/23 02:16:23;;;;;;;4.45;3.35;;;10.70;99.90;;;;;;5095182;28;20195;-63
2022/10/23 02:18:55;;;;;;;4.50;3.40;;;10.80;99.90;;;;;;5097283;28;20638;-63
2022/10/23 02:21:30;;;;;;;9.05;3.10;;;10.80;99.90;;;;;;5087651;28;21128;-63
2022/10/23 02:24:03;;;;;;;3.78;3.03;;;10.80;99.90;;;;;;5077143;28;20238;-63
2022/10/23 02:26:36;;;;;;;4.38;3.15;;;10.80;99.90;;;;;;5077680;28;20192;-63
2022/10/23 02:29:10;;;;;;;4.30;2.80;;;10.90;99.90;;;;;;5076960;28;20199;-63
2022/10/23 02:31:41;;;;;;;2.72;2.53;;;10.90;99.90;;;;;;5078090;28;20203;-63
2022/10/23 02:34:10;;;;;;;2.47;2.30;;;10.80;99.90;;;;;;5077734;28;20199;-63
2022/10/23 02:36:38;;;;;;;5.85;3.10;;;10.80;99.90;;;;;;5088190;28;20192;-63
2022/10/23 02:39:06;;;;;;;7.43;3.45;;;10.80;99.90;;;;;;5086651;28;20207;-64
2022/10/23 02:41:42;;;;;;;8.25;3.10;;;10.70;99.90;;;;;;5062902;28;20203;-64
2022/10/23 02:44:32;;;;;;;3.47;3.00;;;10.70;99.90;;;;;;5076742;28;20214;-64
2022/10/23 02:47:10;;;;;;;21.75;3.80;;;10.70;99.90;;;;;;5096982;28;20199;-64
2022/10/23 02:49:48;;;;;;;4.63;3.17;;;10.70;99.90;;;;;;5091838;28;20183;-64
2022/10/23 02:52:24;;;;;;;5.78;3.78;;;10.70;99.90;;;;;;5075970;28;20191;-63
2022/10/23 02:55:10;;;;;;;3.30;3.00;;;10.60;99.90;;;;;;5077068;28;20195;-63
2022/10/23 02:57:53;;;;;;;6.50;3.47;;;10.60;99.90;;;;;;5095251;28;20223;-64
2022/10/23 03:00:24;;;;;;;3.40;3.10;;;10.60;99.90;;;;;;5095289;28;20552;-63
2022/10/23 03:02:57;;;;;;;9.00;3.42;;;10.60;99.90;;;;;;5076854;28;20219;-64
2022/10/23 03:05:30;;;;;;;10.20;4.20;;;10.60;99.90;;;;;;5093550;28;20222;-64
2022/10/23 03:07:58;;;;;;;4.40;3.15;;;10.70;99.90;;;;;;5094741;28;20199;-64
2022/10/23 03:10:26;;;;;;;8.15;5.32;;;10.70;99.90;;;;;;5094394;28;20203;-64
2022/10/23 03:12:54;;;;;;;14.38;5.43;;;10.60;99.90;;;;;;5096071;28;20252;-64
2022/10/23 03:15:23;;;;;;;7.40;4.50;;;10.60;99.90;;;;;;5095014;28;20199;-64
2022/10/23 03:17:52;;;;;;;10.60;4.13;;;10.70;99.90;;;;;;5094638;28;20188;-64
2022/10/23 03:20:20;;;;;;;10.82;4.60;;;10.70;99.90;;;;;;5094277;28;20214;-65
2022/10/23 03:22:48;;;;;;;6.30;5.70;;;10.70;99.90;;;;;;5095771;28;20252;-65
2022/10/23 03:25:16;;;;;;;6.95;4.00;;;10.80;99.90;;;;;;5096904;28;20203;-64
2022/10/23 03:27:44;;;;;;;6.40;3.10;;;10.80;99.90;;;;;;5095103;28;20203;-65
2022/10/23 03:30:16;;;;;;;6.05;4.00;;;10.90;99.90;;;;;;5094263;28;20531;-65
2022/10/23 03:32:45;;;;;;;9.98;6.32;;;10.90;99.90;;;;;;5094965;28;20207;-64
2022/10/23 03:35:13;;;;;;;4.38;3.88;;;10.90;99.90;;;;;;5095879;28;20207;-64
2022/10/23 03:37:41;;;;;;;4.05;2.75;;;10.90;99.90;;;;;;5095483;28;20214;-64
2022/10/23 03:40:10;;;;;;;5.03;3.38;;;10.90;99.90;;;;;;5089515;28;20203;-64
2022/10/23 03:42:38;;;;;;;7.05;2.90;;;11.00;99.90;;;;;;5093552;28;20593;-65
2022/10/23 03:45:07;;;;;;;3.13;2.80;;;10.90;99.90;;;;;;5093844;28;20203;-65
2022/10/23 03:47:39;;;;;;;6.30;3.70;;;11.00;99.90;;;;;;5095475;28;21296;-64
2022/10/23 03:50:13;;;;;;;6.38;3.88;;;11.10;99.90;;;;;;5094144;28;20580;-66
2022/10/23 03:52:41;;;;;;;4.85;3.78;;;11.10;99.90;;;;;;5093429;28;20256;-64
2022/10/23 03:55:09;;;;;;;4.47;3.50;;;11.10;99.90;;;;;;5093483;28;20191;-64
2022/10/23 03:57:38;;;;;;;7.70;3.13;;;11.00;99.90;;;;;;5090598;28;20662;-64
2022/10/23 04:00:07;;;;;;;8.00;3.80;;;11.00;99.90;;;;;;5082114;28;20977;-63
2022/10/23 04:02:44;;;;;;;7.18;3.40;;;11.10;99.90;;;;;;5092958;28;21174;-66
2022/10/23 04:05:13;;;;;;;6.03;3.95;;;11.20;99.90;;;;;;5087391;28;20546;-64
2022/10/23 04:07:50;;;;;;;7.55;4.00;;;11.20;99.90;;;;;;5077433;28;20639;-64
2022/10/23 04:10:19;;;;;;;8.20;4.43;;;11.30;99.90;;;;;;5074525;28;20219;-65
2022/10/23 04:12:47;;;;;;;10.45;3.78;;;11.40;99.90;;;;;;5086521;28;20834;-65
2022/10/23 04:15:15;;;;;;;10.25;4.03;;;11.50;99.90;;;;;;5094766;28;20203;-64
2022/10/23 04:17:46;;;;;;;9.52;3.65;;;11.50;99.90;;;;;;5093127;28;20183;-65
2022/10/23 04:20:15;;;;;;;3.63;3.33;;;11.50;99.90;;;;;;5092623;28;20614;-64
2022/10/23 04:22:43;;;;;;;5.53;3.13;;;11.50;99.90;;;;;;5093678;28;20566;-64
2022/10/23 04:25:11;;;;;;;4.40;4.00;;;11.40;99.90;;;;;;5078665;28;20641;-64
2022/10/23 04:27:40;;;;;;;3.92;3.63;;;11.40;99.90;;;;;;5072874;28;20613;-64
2022/10/23 04:30:09;;;;;;;9.43;3.53;;;11.40;99.90;;;;;;5073647;28;20685;-64
2022/10/23 04:32:39;;;;;;;5.20;3.30;;;11.30;99.90;;;;;;5073294;28;20570;-64
2022/10/23 04:35:08;;;;;;;8.50;4.77;;;11.30;99.90;;;;;;5074042;28;20675;-64
2022/10/23 04:37:37;;;;;;;5.03;4.53;;;11.40;99.90;;;;;;5072656;28;20625;-64
2022/10/23 04:40:08;;;;;;;5.83;4.17;;;11.50;99.90;;;;;;5073338;28;20191;-64
2022/10/23 04:42:38;;;;;;;7.90;3.72;;;11.50;99.90;;;;;;5072821;28;20579;-64
2022/10/23 04:45:07;;;;;;;4.93;3.30;;;11.40;99.90;;;;;;5073734;28;20220;-65
2022/10/23 04:47:36;;;;;;;4.50;3.90;;;11.40;99.90;;;;;;5073291;28;20617;-64
2022/10/23 04:50:05;;;;;;;4.25;3.85;;;11.40;99.90;;;;;;5056832;28;20199;-64
2022/10/23 04:52:55;;;;;;;9.03;4.70;;;11.40;99.90;;;;;;5073072;28;20231;-64
2022/10/23 04:55:57;;;;;;;5.53;3.83;;;11.40;99.90;;;;;;5073142;28;20652;-64
2022/10/23 04:58:40;;;;;;;10.23;4.17;;;11.40;99.90;;;;;;5071950;28;20560;-64
2022/10/23 05:01:09;;;;;;;3.80;3.40;;;11.50;99.90;;;;;;5075109;28;20634;-64
2022/10/23 05:03:39;;;;;;;6.63;3.80;;;11.40;99.90;;;;;;5079094;28;20669;-64
2022/10/23 05:06:07;;;;;;;5.17;4.33;;;11.40;99.90;;;;;;5078731;28;21045;-64
2022/10/23 05:08:48;;;;;;;4.23;3.57;;;11.40;99.90;;;;;;5082594;28;20919;-64
2022/10/23 05:11:39;;;;;;;4.85;3.25;;;11.30;99.90;;;;;;5078258;28;20608;-64
2022/10/23 05:14:09;;;;;;;8.03;3.90;;;11.30;99.90;;;;;;5083010;28;20214;-64
2022/10/23 05:16:42;;;;;;;8.10;4.37;;;11.30;99.90;;;;;;5080460;28;20586;-64
2022/10/23 05:19:17;;;;;;;8.98;4.35;;;11.20;99.90;;;;;;5080063;28;20593;-64
2022/10/23 05:21:48;;;;;;;5.88;4.50;;;11.20;99.90;;;;;;5080686;28;20219;-64
2022/10/23 05:24:17;;;;;;;8.73;4.47;;;11.20;99.90;;;;;;5081645;28;20214;-64
2022/10/23 05:26:56;;;;;;;9.00;5.10;;;11.30;99.90;;;;;;5081872;28;20938;-64
2022/10/23 05:29:24;;;;;;;9.05;4.78;;;11.30;99.90;;;;;;5079423;28;20202;-64
2022/10/23 05:32:00;;;;;;;7.18;5.70;;;11.30;99.90;;;;;;5082070;28;20196;-64
2022/10/23 05:34:33;;;;;;;7.40;6.23;;;11.30;99.90;;;;;;5079436;28;20180;-64
2022/10/23 05:37:02;;;;;;;5.72;5.00;;;11.30;99.90;;;;;;5083002;28;20966;-64
2022/10/23 05:39:34;;;;;;;7.03;4.88;;;11.30;99.90;;;;;;5080528;28;20191;-64
2022/10/23 05:42:07;;;;;;;5.73;4.80;;;11.20;99.90;;;;;;5078515;28;20188;-65
2022/10/23 05:44:35;;;;;;;6.40;4.35;;;11.00;99.90;;;;;;5084148;28;20668;-64
2022/10/23 05:47:22;;;;;;;6.27;4.50;;;11.00;99.90;;;;;;5084939;28;20683;-65
2022/10/23 05:50:09;;;;;;;5.97;4.30;;;10.90;99.90;;;;;;5090631;28;20564;-64
2022/10/23 05:53:00;;;;;;;10.10;4.60;;;10.80;99.90;;;;;;5084456;28;20231;-64
2022/10/23 05:56:06;;;;;;;5.85;5.30;;;10.80;99.90;;;;;;5075960;28;20210;-64
2022/10/23 05:59:00;;;;;;;7.07;4.67;;;10.70;99.90;;;;;;5080626;28;20566;-64
2022/10/23 06:02:00;;;;;;;11.18;5.22;;;10.70;99.90;;;;;;5062592;28;20629;-65
2022/10/23 06:04:49;;;;;;;8.82;4.50;;;10.70;99.90;;;;;;5092651;28;20276;-65
2022/10/23 06:07:35;;;;;;;7.30;5.00;;;10.70;99.90;;;;;;5094947;28;20550;-64
2022/10/23 06:10:06;;;;;;;6.43;4.20;;;10.70;99.90;;;;;;5089981;28;20221;-64
2022/10/23 06:12:40;;;;;;;7.85;4.55;;;10.70;99.90;;;;;;5085416;28;20207;-64
2022/10/23 06:15:10;;;;;;;18.38;6.13;;;10.70;99.90;;;;;;5106356;28;21475;-64
2022/10/23 06:18:01;;;;;;;16.10;4.40;;;10.70;99.90;;;;;;5087772;28;20264;-64
2022/10/23 06:20:30;;;;;;;11.43;4.57;;;10.70;99.90;;;;;;5083252;28;20895;-64
2022/10/23 06:23:08;;;;;;;5.80;4.20;;;10.70;99.90;;;;;;5088875;28;20587;-65
2022/10/23 06:25:55;;;;;;;7.20;3.70;;;10.70;99.90;;;;;;5093512;28;20222;-65
2022/10/23 06:28:31;;;;;;;6.10;5.50;;;10.70;99.90;;;;;;5079587;28;20214;-65
2022/10/23 06:31:00;;;;;;;8.30;6.15;;;10.80;99.90;;;;;;5095133;28;20568;-62
2022/10/23 06:33:28;;;;;;;12.15;6.10;;;10.80;99.90;;;;;;5068903;28;20199;-64
2022/10/23 06:35:56;;;;;;;11.32;6.88;;;10.80;99.90;;;;;;5074409;28;20250;-63
2022/10/23 06:38:24;;;;;;;12.50;6.65;;;10.70;99.90;;;;;;5078667;28;20552;-64
2022/10/23 06:41:00;;;;;;;9.00;6.95;;;10.60;99.90;;;;;;5073889;28;20184;-64
2022/10/23 06:43:36;;;;;;;7.97;7.18;;;10.70;99.90;;;;;;5074191;28;20553;-64
2022/10/23 06:46:28;;;;;;;13.43;6.78;;;10.70;99.90;;;;;;5068879;28;20655;-64
2022/10/23 06:49:17;;;;;;;11.38;6.82;;;10.90;99.90;;;;;;5067431;28;20211;-64
2022/10/23 06:51:48;;;;;;;8.70;7.80;;;11.00;99.90;;;;;;5073438;28;20191;-64
2022/10/23 06:54:21;;;;;;;10.07;7.13;;;11.00;99.90;;;;;;5074125;28;20646;-64
2022/10/23 06:56:49;;;;;;;8.00;7.30;;;11.10;99.90;;;;;;5087625;28;20216;-64
2022/10/23 06:59:22;;;;;;;6.65;6.00;;;11.10;99.90;;;;;;5089985;28;20573;-64
2022/10/23 07:01:52;;;;;;;21.33;6.53;;;11.20;99.90;;;;;;5092514;28;20194;-64
2022/10/23 07:04:20;;;;;;;11.95;7.28;;;11.20;99.90;;;;;;5093531;28;20628;-64
2022/10/23 07:06:49;;;;;;;7.63;6.40;;;11.20;99.90;;;;;;5093223;28;20215;-64
2022/10/23 07:09:21;;;;;;;10.98;7.68;;;11.20;99.90;;;;;;5094599;28;20556;-64
2022/10/23 07:11:52;;;;;;;7.40;6.70;;;11.20;99.90;;;;;;5095148;28;20187;-64
2022/10/23 07:14:30;;;;;;;8.20;6.20;;;11.30;99.90;;;;;;5087608;28;20984;-64
2022/10/23 07:16:59;;;;;;;13.90;6.37;;;11.40;99.90;;;;;;5092978;28;20576;-64
2022/10/23 07:19:29;;;;;;;9.63;6.03;;;11.50;99.90;;;;;;5081731;28;20642;-64
2022/10/23 07:21:58;;;;;;;7.13;6.47;;;11.70;99.90;;;;;;5086823;28;21164;-64
2022/10/23 07:24:48;;;;;;;7.80;6.40;;;11.80;99.90;;;;;;5071259;28;20658;-64
2022/10/23 07:27:29;;;;;;;18.00;12.93;;;11.90;99.90;;;;;;5072838;28;20584;-64
2022/10/23 07:30:03;;;;;;;12.80;8.60;;;12.00;99.90;;;;;;5075212;28;21222;-64
2022/10/23 07:32:36;;;;;;;12.03;9.23;;;12.10;99.90;;;;;;5069263;28;20696;-64
2022/10/23 07:35:24;;;;;;;9.00;8.10;;;12.00;99.90;;;;;;5086580;28;20961;-64
2022/10/23 07:38:01;;;;;;;13.33;9.90;;;12.20;99.90;;;;;;5087970;28;20584;-64
2022/10/23 07:40:33;;;;;;;8.17;6.63;;;12.20;99.90;;;;;;5088127;28;20592;-63
2022/10/23 07:43:01;;;;;;;9.03;6.87;;;12.30;99.90;;;;;;5090328;28;20615;-63
2022/10/23 07:45:30;;;;;;;8.73;6.57;;;12.50;99.90;;;;;;5090914;28;21018;-63
2022/10/23 07:48:03;;;;;;;8.40;6.37;;;12.60;99.90;;;;;;5077891;28;20633;-64
2022/10/23 07:50:43;;;;;;;9.23;6.77;;;12.60;99.90;;;;;;5090912;28;20602;-64
2022/10/23 07:53:16;;;;;;;13.10;5.90;;;12.80;99.90;;;;;;5081818;28;20628;-64
2022/10/23 07:55:52;;;;;;;7.60;6.43;;;12.80;99.90;;;;;;5078240;28;20951;-64
2022/10/23 07:58:21;;;;;;;7.50;5.77;;;12.90;99.90;;;;;;5076589;28;20626;-64
2022/10/23 08:01:16;;;;;;;11.57;6.43;;;12.90;99.90;;;;;;5073924;28;20587;-64
2022/10/23 08:03:45;;;;;;;11.10;6.90;;;13.10;99.90;;;;;;5075175;28;20608;-64
2022/10/23 08:06:14;;;;;;;6.80;6.20;;;13.10;99.90;;;;;;5086295;28;20665;-63
2022/10/23 08:08:42;;;;;;;7.07;6.37;;;13.30;99.90;;;;;;5082721;28;20611;-63
2022/10/23 08:11:13;;;;;;;10.20;5.83;;;13.40;99.90;;;;;;5101667;28;20637;-63
2022/10/23 08:13:50;;;;;;;17.63;5.47;;;13.50;99.90;;;;;;5085942;28;20734;-63
2022/10/23 08:16:20;;;;;;;9.77;7.43;;;13.80;99.90;;;;;;5084826;28;20622;-63
2022/10/23 08:19:08;;;;;;;10.70;6.60;;;14.20;99.90;;;;;;5083216;28;20625;-63
2022/10/23 08:21:38;;;;;;;5.80;5.00;;;14.50;99.90;;;;;;5081974;28;20614;-63
2022/10/23 08:24:12;;;;;;;5.47;4.97;;;14.80;99.90;;;;;;5076766;28;20635;-63
2022/10/23 08:26:40;;;;;;;7.03;5.23;;;14.80;99.90;;;;;;5073223;28;20690;-63
2022/10/23 08:29:09;;;;;;;5.33;4.87;;;14.90;99.90;;;;;;5084568;28;20638;-63
2022/10/23 08:31:38;;;;;;;5.17;4.67;;;14.70;99.90;;;;;;5080269;28;20653;-63
2022/10/23 08:34:17;;;;;;;7.73;5.27;;;14.80;99.90;;;;;;5093503;28;20625;-63
2022/10/23 08:36:47;;;;;;;9.17;5.30;;;15.00;99.90;;;;;;5080450;28;20606;-63
2022/10/23 08:39:16;;;;;;;6.30;5.43;;;15.10;99.90;;;;;;5090044;28;20625;-64
2022/10/23 08:42:00;;;;;;;16.43;6.17;;;15.00;99.90;;;;;;5081382;28;20621;-64
2022/10/23 08:44:33;;;;;;;8.83;5.63;;;15.10;99.90;;;;;;5073507;28;20614;-64
2022/10/23 08:47:08;;;;;;;11.17;6.00;;;15.10;99.90;;;;;;5083180;28;20717;-64
2022/10/23 08:49:49;;;;;;;12.97;6.13;;;15.20;99.90;;;;;;5075033;28;20581;-64
2022/10/23 08:52:24;;;;;;;6.33;5.57;;;15.40;99.90;;;;;;5083531;28;22553;-64
2022/10/23 08:55:04;;;;;;;6.73;6.00;;;15.50;99.90;;;;;;5084026;28;20614;-64
2022/10/23 08:57:36;;;;;;;5.90;5.40;;;15.70;99.90;;;;;;5093509;28;20641;-64
2022/10/23 09:00:08;;;;;;;5.43;5.00;;;15.70;99.90;;;;;;5074168;28;21102;-64
2022/10/23 09:02:41;;;;;;;5.63;5.13;;;15.60;99.90;;;;;;5074339;28;20591;-64
2022/10/23 09:05:15;;;;;;;5.43;4.90;;;15.60;99.90;;;;;;5086842;28;20601;-64
2022/10/23 09:07:54;;;;;;;12.03;6.00;;;15.50;99.90;;;;;;5094215;28;20641;-64
2022/10/23 09:10:51;;;;;;;9.27;5.03;;;15.60;99.90;;;;;;5092426;28;20621;-64
2022/10/23 09:13:54;;;;;;;5.17;4.67;;;15.70;99.90;;;;;;5074661;28;20627;-64
2022/10/23 09:16:36;;;;;;;6.07;5.47;;;15.70;99.90;;;;;;5065711;28;20656;-64
2022/10/23 09:19:14;;;;;;;6.50;5.17;;;16.00;99.90;;;;;;5098277;28;21127;-64
2022/10/23 09:21:44;;;;;;;6.90;4.00;;;16.10;99.90;;;;;;5099281;28;20581;-64
2022/10/23 09:24:16;;;;;;;6.80;3.63;;;16.10;99.90;;;;;;5099026;28;20660;-64
2022/10/23 09:26:48;;;;;;;10.07;4.37;;;16.40;99.90;;;;;;5097477;28;20678;-65
2022/10/23 09:29:23;;;;;;;6.23;3.60;;;16.60;99.90;;;;;;5097114;28;20573;-64
2022/10/23 09:31:53;;;;;;;6.00;3.10;;;16.80;99.90;;;;;;5096162;28;20805;-65
2022/10/23 09:34:24;;;;;;;8.73;3.53;;;17.10;99.90;;;;;;5096796;28;20581;-64
2022/10/23 09:36:59;;;;;;;5.90;4.57;;;17.10;99.90;;;;;;5095634;28;20563;-64
2022/10/23 09:39:30;;;;;;;6.70;4.10;;;16.90;99.90;;;;;;5096055;28;20559;-64
2022/10/23 09:42:01;;;;;;;7.23;3.53;;;16.80;99.90;;;;;;5094933;28;20626;-64
2022/10/23 09:44:31;;;;;;;4.03;3.73;;;17.10;99.90;;;;;;5095906;28;20588;-64
2022/10/23 09:47:01;;;;;;;7.80;3.33;;;17.30;99.90;;;;;;5095380;28;20718;-64
2022/10/23 09:49:32;;;;;;;3.53;3.33;;;17.50;99.90;;;;;;5078118;28;20663;-64
2022/10/23 09:52:03;;;;;;;5.83;3.50;;;17.70;99.90;;;;;;5094998;28;21202;-64
2022/10/23 09:54:35;;;;;;;6.40;3.60;;;17.60;99.90;;;;;;5095876;28;20595;-64
2022/10/23 09:57:23;;;;;;;3.23;3.03;;;17.10;99.90;;;;;;5074564;28;21052;-64
2022/10/23 09:59:52;;;;;;;10.40;3.70;;;17.20;99.90;;;;;;5075566;28;20586;-65
2022/10/23 10:02:27;;;;;;;4.87;3.33;;;16.90;99.90;;;;;;5073728;28;20618;-64
2022/10/23 10:05:24;;;;;;;10.07;3.60;;;17.00;99.90;;;;;;5079940;28;20621;-65
2022/10/23 10:08:03;;;;;;;8.33;3.40;;;17.00;99.90;;;;;;5095244;28;20627;-65
2022/10/23 10:10:37;;;;;;;4.20;3.90;;;17.10;99.90;;;;;;5095800;28;20573;-65
2022/10/23 10:13:18;;;;;;;4.90;3.73;;;17.20;99.90;;;;;;5094376;28;20617;-65
2022/10/23 10:15:50;;;;;;;3.73;2.80;;;17.50;99.90;;;;;;5094387;28;20593;-65
2022/10/23 10:18:23;;;;;;;2.83;2.63;;;17.30;99.90;;;;;;5073652;28;20586;-65
2022/10/23 10:21:05;;;;;;;11.77;2.90;;;17.40;99.90;;;;;;5075440;28;20593;-65
2022/10/23 10:23:44;;;;;;;6.90;4.00;;;17.70;99.90;;;;;;5073706;28;20602;-65
2022/10/23 10:26:27;;;;;;;3.80;3.00;;;18.20;99.90;;;;;;5075462;28;21240;-65
2022/10/23 10:29:05;;;;;;;5.40;2.83;;;18.50;99.90;;;;;;5073249;28;20980;-65
2022/10/23 10:31:45;;;;;;;5.73;3.40;;;18.30;99.90;;;;;;5075336;28;20590;-65
2022/10/23 10:34:19;;;;;;;5.17;2.63;;;18.50;99.90;;;;;;5080916;28;20592;-64
2022/10/23 10:36:52;;;;;;;6.43;3.00;;;18.20;99.90;;;;;;5095838;28;20578;-64
2022/10/23 10:39:40;;;;;;;2.47;2.30;;;18.50;99.90;;;;;;5094550;28;20948;-64
2022/10/23 10:42:41;;;;;;;5.23;2.60;;;18.60;99.90;;;;;;5095151;28;20611;-64
2022/10/23 10:45:19;;;;;;;4.07;2.57;;;19.00;99.90;;;;;;5095142;28;20612;-65
2022/10/23 10:48:01;;;;;;;5.00;2.37;;;19.70;99.90;;;;;;5094862;28;20660;-65
2022/10/23 10:50:43;;;;;;;3.73;2.13;;;19.90;99.90;;;;;;5093403;28;20611;-65
2022/10/23 10:53:26;;;;;;;4.00;3.00;;;19.40;99.90;;;;;;5093668;28;20656;-65
2022/10/23 10:55:57;;;;;;;3.13;2.83;;;19.20;99.90;;;;;;5094304;28;21012;-65
2022/10/23 10:58:36;;;;;;;3.63;3.10;;;19.40;99.90;;;;;;5094986;28;20677;-66
2022/10/23 11:01:14;;;;;;;6.70;3.70;;;19.60;99.90;;;;;;5094304;28;20581;-65
2022/10/23 11:03:48;;;;;;;2.93;2.00;;;19.00;99.90;;;;;;5094579;28;20927;-65
2022/10/23 11:06:20;;;;;;;4.90;4.50;;;19.00;99.90;;;;;;5094721;28;20627;-65
2022/10/23 11:08:51;;;;;;;4.00;2.73;;;18.90;99.90;;;;;;5096144;28;20573;-65
2022/10/23 11:11:24;;;;;;;4.03;3.57;;;19.00;99.90;;;;;;5096195;28;20581;-65
2022/10/23 11:13:53;;;;;;;4.87;2.23;;;19.70;99.90;;;;;;5095332;28;20600;-65
2022/10/23 11:16:25;;;;;;;2.67;2.33;;;19.80;99.90;;;;;;5094550;28;20621;-65
2022/10/23 11:19:04;;;;;;;3.43;3.13;;;19.70;99.90;;;;;;5094554;28;20574;-65
2022/10/23 11:21:39;;;;;;;3.33;2.20;;;19.70;99.90;;;;;;5094197;28;20589;-65
2022/10/23 11:24:37;;;;;;;6.37;2.70;;;19.90;99.90;;;;;;5094288;28;20585;-65
2022/10/23 11:27:26;;;;;;;3.53;2.60;;;19.70;99.90;;;;;;5090023;28;20691;-65
2022/10/23 11:30:21;;;;;;;6.03;2.17;;;19.70;99.90;;;;;;5094223;28;20589;-65
2022/10/23 11:33:30;;;;;;;5.30;2.30;;;20.20;99.90;;;;;;5091554;28;20648;-65
2022/10/23 11:36:12;;;;;;;4.30;2.47;;;20.90;99.90;;;;;;5095010;28;20609;-66
2022/10/23 11:38:43;;;;;;;9.40;2.50;;;22.20;99.90;;;;;;5095570;28;20674;-63
2022/10/23 11:41:20;;;;;;;12.87;5.97;;;22.80;99.90;;;;;;5093062;28;20939;-64
2022/10/23 11:43:50;;;;;;;3.90;2.43;;;22.30;99.90;;;;;;5093347;28;20573;-63
2022/10/23 11:46:36;;;;;;;4.77;2.60;;;22.20;99.90;;;;;;5093088;28;20621;-64
2022/10/23 11:49:05;;;;;;;2.47;2.37;;;22.70;99.90;;;;;;5093315;28;21086;-64
2022/10/23 11:51:35;;;;;;;7.80;2.97;;;22.90;99.90;;;;;;5093404;28;20624;-64
2022/10/23 11:54:23;;;;;;;10.07;9.17;;;22.90;99.90;;;;;;5092350;28;20637;-64
2022/10/23 11:56:56;;;;;;;4.60;2.50;;;22.10;99.90;;;;;;5094049;28;20720;-65
2022/10/23 11:59:29;;;;;;;6.83;3.20;;;22.40;99.90;;;;;;5093348;28;20589;-63
2022/10/23 12:02:00;;;;;;;4.40;2.80;;;22.30;99.90;;;;;;5092067;28;20976;-63
2022/10/23 12:04:41;;;;;;;9.87;4.47;;;21.60;99.90;;;;;;5091864;28;20645;-63
2022/10/23 12:07:21;;;;;;;2.93;2.73;;;21.40;99.90;;;;;;5090916;28;20701;-63
2022/10/23 12:09:55;;;;;;;7.30;4.10;;;21.50;99.90;;;;;;5091977;28;20585;-64
2022/10/23 12:12:34;;;;;;;7.40;2.83;;;21.60;99.90;;;;;;5092625;28;20577;-64
2022/10/23 12:15:21;;;;;;;4.37;3.80;;;21.60;99.90;;;;;;5091205;28;21211;-64
2022/10/23 12:17:51;;;;;;;3.80;3.00;;;21.50;99.90;;;;;;5093392;28;20581;-64
2022/10/23 12:20:40;;;;;;;7.23;2.60;;;21.40;99.90;;;;;;5092650;28;21149;-64
2022/10/23 12:23:29;;;;;;;4.00;3.07;;;21.70;99.90;;;;;;5092894;28;20585;-64
2022/10/23 12:26:14;;;;;;;3.10;2.83;;;22.20;99.90;;;;;;5092777;28;20577;-65
2022/10/23 12:28:51;;;;;;;3.37;3.07;;;22.30;99.90;;;;;;5092310;28;20673;-63
2022/10/23 12:31:33;;;;;;;3.90;2.43;;;22.10;99.90;;;;;;5091687;28;21038;-64
2022/10/23 12:34:11;;;;;;;3.93;2.37;;;21.90;99.90;;;;;;5092341;28;20570;-64
2022/10/23 12:37:08;;;;;;;4.20;2.67;;;21.40;99.90;;;;;;5092518;28;20577;-64
2022/10/23 12:39:38;;;;;;;3.13;2.80;;;21.70;99.90;;;;;;5092143;28;20955;-65
2022/10/23 12:42:15;;;;;;;6.83;2.87;;;22.00;99.90;;;;;;5092517;28;20968;-65
2022/10/23 12:44:45;;;;;;;2.60;2.50;;;21.50;99.90;;;;;;5092158;28;20585;-63
2022/10/23 12:47:18;;;;;;;3.97;3.10;;;21.60;99.90;;;;;;5092593;28;20645;-64
2022/10/23 12:49:49;;;;;;;3.03;2.80;;;21.70;99.90;;;;;;5092310;28;20613;-63
2022/10/23 12:52:20;;;;;;;2.87;2.60;;;21.40;99.90;;;;;;5090682;28;20639;-63
2022/10/23 12:54:49;;;;;;;4.80;2.93;;;21.50;99.90;;;;;;5092754;28;20604;-64
2022/10/23 12:57:21;;;;;;;3.40;2.90;;;22.20;99.90;;;;;;5092279;28;20640;-63
2022/10/23 12:59:55;;;;;;;3.70;2.67;;;22.30;99.90;;;;;;5092775;28;20570;-64
2022/10/23 13:02:25;;;;;;;3.83;2.63;;;22.50;99.90;;;;;;5091591;28;20558;-64
2022/10/23 13:04:55;;;;;;;2.77;2.53;;;22.80;99.90;;;;;;5091605;28;20604;-64
2022/10/23 13:07:26;;;;;;;12.43;3.63;;;22.50;99.90;;;;;;5092260;28;20636;-64
2022/10/23 13:09:58;;;;;;;2.80;2.60;;;21.90;99.90;;;;;;5090336;28;20586;-64
2022/10/23 13:12:32;;;;;;;16.63;3.33;;;21.60;99.90;;;;;;5086388;28;20607;-65
2022/10/23 13:15:13;;;;;;;6.30;2.83;;;21.00;99.90;;;;;;5072906;28;21046;-63
2022/10/23 13:17:43;;;;;;;5.20;2.73;;;21.10;99.90;;;;;;5083844;28;20609;-64
2022/10/23 13:20:21;;;;;;;2.97;2.53;;;20.80;99.90;;;;;;5089087;28;20648;-64
2022/10/23 13:22:53;;;;;;;6.40;3.17;;;21.00;99.90;;;;;;5083926;28;20617;-64
2022/10/23 13:25:26;;;;;;;4.17;2.50;;;21.40;99.90;;;;;;5081269;28;20602;-64